Stations météo

réclame
Mon MeteoGroup
Ilundain, Espagne (8089): Température de l'air & dewpoint: 14.06.2018 07:00:00 - 20.06.2018 07:00:00 (CEST)Ilundain, Espagne (8089): Vitesse du vent & gusts: 14.06.2018 07:00:00 - 20.06.2018 07:00:00 (CEST)Ilundain, Espagne (8089): Direction du vent: 14.06.2018 07:00:00 - 20.06.2018 07:00:00 (CEST)Ilundain, Espagne (8089): Quantités de précipitations: 14.06.2018 07:00:00 - 20.06.2018 07:00:00 (CEST)
Date & Time tt [°C] td [°C] ff [km/h] ff [knt] fx [km/h] fx [knt] dd rr [mm]
20.06.2018 07:00:00 13,6 13,5 3 1 5 3 E 0,0
20.06.2018 06:00:00 14,2 14,0 0 0 6 3 ENE 0,0
20.06.2018 05:00:00 14,0 13,9 1 1 5 3 SW 0,0
20.06.2018 04:00:00 14,8 14,6 2 1 7 4 SSW 0,0
20.06.2018 03:00:00 13,9 13,8 0 0 5 3 E 0,0
20.06.2018 02:00:00 14,3 14,1 2 1 5 3 E -
20.06.2018 01:00:00 14,8 14,6 4 2 6 3 E 0,0
20.06.2018 00:00:00 15,6 15,4 3 1 5 3 ESE 0,0
19.06.2018 23:00:00 17,1 15,6 1 1 8 4 SE 0,0
19.06.2018 22:00:00 20,1 15,7 1 1 9 5 S 0,0
19.06.2018 21:00:00 22,6 16,1 4 2 13 7 N 0,0
19.06.2018 20:00:00 23,3 16,1 8 4 15 8 ENE -
19.06.2018 19:00:00 25,3 17,0 6 3 18 10 NNE 0,0
19.06.2018 18:00:00 25,5 17,1 6 3 20 11 NNE 0,0
19.06.2018 17:00:00 25,0 17,5 11 6 23 12 NW 0,0
19.06.2018 16:00:00 24,7 16,6 10 5 21 11 NW 0,0
19.06.2018 15:00:00 24,2 16,2 6 4 16 9 NW 0,0
19.06.2018 14:00:00 22,8 16,1 7 4 16 9 WNW -
19.06.2018 13:00:00 21,3 16,0 7 4 14 8 W 0,0
19.06.2018 12:00:00 19,8 15,4 4 2 19 10 WNW 0,0
19.06.2018 11:00:00 18,3 15,2 9 5 16 9 W 0,0
19.06.2018 10:00:00 16,7 14,7 6 3 13 7 WSW 0,0
19.06.2018 09:00:00 15,5 15,0 2 1 6 3 SW 0,0
19.06.2018 08:00:00 13,9 13,8 1 0 6 4 E -
19.06.2018 07:00:00 12,4 12,2 4 2 10 5 SSW 0,0
19.06.2018 06:00:00 12,9 12,7 2 1 15 8 SW 0,0
19.06.2018 05:00:00 13,5 13,4 7 4 17 9 NNW 0,0
19.06.2018 04:00:00 14,1 13,7 1 0 20 11 NE 0,0
19.06.2018 03:00:00 14,5 14,0 8 5 20 11 NNW 0,0
19.06.2018 02:00:00 14,8 13,9 9 5 21 11 NW -
19.06.2018 01:00:00 - - - - - - - -
19.06.2018 00:00:00 16,1 13,4 8 5 21 11 N 0,0
18.06.2018 23:00:00 16,1 13,4 7 4 21 12 NNW 0,0
18.06.2018 22:00:00 16,5 13,1 5 3 21 12 NW 0,0
18.06.2018 21:00:00 17,9 13,0 9 5 30 16 N 0,0
18.06.2018 20:00:00 17,9 12,5 15 8 36 19 NNE -
18.06.2018 19:00:00 18,7 13,2 11 6 35 19 N 0,0
18.06.2018 18:00:00 19,1 13,1 13 7 31 17 NNE 0,0
18.06.2018 17:00:00 19,4 13,4 13 7 31 17 N 0,0
18.06.2018 16:00:00 18,8 13,3 16 9 35 19 N 0,0
18.06.2018 15:00:00 18,9 13,6 10 6 32 18 NNE 0,0
18.06.2018 14:00:00 19,3 13,7 12 6 32 18 N -
18.06.2018 13:00:00 19,5 13,7 13 7 28 15 N 0,0
18.06.2018 12:00:00 18,8 13,0 17 9 30 16 N 0,0
18.06.2018 11:00:00 18,6 12,8 7 4 21 11 NNE 0,0
18.06.2018 10:00:00 16,5 12,8 11 6 16 9 NW 0,0
18.06.2018 09:00:00 14,4 12,2 4 2 9 5 SSW 0,0
18.06.2018 08:00:00 12,2 11,8 0 0 6 3 SSE -
18.06.2018 07:00:00 10,7 10,5 0 0 4 2 N 0,0
18.06.2018 06:00:00 9,9 9,8 0 0 7 4 SSE 0,0
18.06.2018 05:00:00 8,4 8,3 4 2 6 4 E 0,0
18.06.2018 04:00:00 8,8 8,7 2 1 6 3 ENE 0,0
18.06.2018 03:00:00 9,3 9,2 1 1 7 4 SE 0,0
18.06.2018 02:00:00 9,5 9,3 2 1 6 4 ESE -
18.06.2018 01:00:00 10,6 9,8 0 0 5 3 S 0,0
18.06.2018 00:00:00 11,5 10,4 0 0 8 4 SW 0,0
17.06.2018 23:00:00 12,6 10,2 2 1 6 3 WSW 0,0
17.06.2018 22:00:00 14,1 9,6 1 1 18 10 NNE 0,0
17.06.2018 21:00:00 16,4 9,8 6 4 21 12 NNE 0,0
17.06.2018 20:00:00 17,7 10,0 9 5 30 16 NNE -
17.06.2018 19:00:00 19,0 11,1 11 6 24 13 N 0,0
17.06.2018 18:00:00 19,7 11,7 8 4 31 17 N 0,0
17.06.2018 17:00:00 19,8 11,8 8 4 28 15 N 0,0
17.06.2018 16:00:00 19,1 11,4 18 10 37 20 NNW 0,0
17.06.2018 15:00:00 18,3 11,6 13 7 31 17 NNW 0,0
17.06.2018 14:00:00 17,0 11,7 15 8 36 19 NNW -
17.06.2018 13:00:00 15,7 11,7 18 10 32 17 NNW 0,0
17.06.2018 12:00:00 15,7 13,2 15 8 27 14 NNW 0,0
17.06.2018 11:00:00 15,0 13,1 8 5 21 11 NNW 0,0
17.06.2018 10:00:00 14,8 13,2 14 7 23 12 NNW 0,0
17.06.2018 09:00:00 13,4 13,3 10 5 17 9 NNW 0,0
17.06.2018 08:00:00 11,3 11,1 3 2 5 3 SSW -
17.06.2018 07:00:00 9,5 9,3 0 0 6 3 ENE 0,0
17.06.2018 06:00:00 8,3 8,1 0 0 5 3 N 0,0
17.06.2018 05:00:00 9,0 8,8 5 3 9 5 NW 0,0
17.06.2018 04:00:00 8,5 8,4 0 0 5 3 SSW 0,0
17.06.2018 03:00:00 9,5 9,2 0 0 6 3 SSW 0,0
17.06.2018 02:00:00 10,9 10,2 6 3 10 6 NNW -
17.06.2018 01:00:00 10,7 9,8 3 1 11 6 SSE 0,0
17.06.2018 00:00:00 11,4 9,9 3 2 12 7 SW 0,0
16.06.2018 23:00:00 12,5 10,0 9 5 18 10 NNW 0,0
16.06.2018 22:00:00 13,5 9,6 7 4 18 10 N 0,0
16.06.2018 21:00:00 15,3 10,5 14 7 25 14 NNW 0,0
16.06.2018 20:00:00 16,8 10,6 10 6 23 13 NE -
16.06.2018 19:00:00 18,1 11,4 11 6 27 14 N 0,0
16.06.2018 18:00:00 18,5 12,0 11 6 30 16 NNE 0,0
16.06.2018 17:00:00 18,9 12,4 11 6 31 17 N 0,0
16.06.2018 16:00:00 17,3 11,8 9 5 27 14 NNE 0,0
16.06.2018 15:00:00 17,6 13,4 13 7 33 18 NNW 0,0
16.06.2018 14:00:00 16,5 13,3 20 11 32 17 NNW -
16.06.2018 13:00:00 16,6 13,6 19 11 32 17 NNW 0,0
16.06.2018 12:00:00 16,8 13,8 13 7 23 12 NNW 0,0
16.06.2018 11:00:00 15,9 14,2 11 6 24 13 NNW 0,0
16.06.2018 10:00:00 15,3 14,5 14 8 23 13 NNW 0,0
16.06.2018 09:00:00 14,6 14,4 12 7 19 10 NNW 0,0
16.06.2018 08:00:00 14,1 13,9 9 5 14 7 NW -
16.06.2018 07:00:00 13,5 13,4 7 4 14 8 NW 0,0
16.06.2018 06:00:00 13,7 13,6 5 3 13 7 NW 0,0
16.06.2018 05:00:00 13,7 13,6 2 1 7 4 WNW 0,0
16.06.2018 04:00:00 13,9 13,8 0 0 10 5 SSW 0,0
16.06.2018 03:00:00 13,8 13,7 2 1 9 5 WSW 0,0
16.06.2018 02:00:00 14,0 13,9 2 1 6 4 W -
16.06.2018 01:00:00 13,8 13,7 3 2 11 6 W 0,0
16.06.2018 00:00:00 14,0 13,9 6 4 14 8 N 0,0
15.06.2018 23:00:00 14,5 14,0 6 3 15 8 NW 0,0
15.06.2018 22:00:00 15,0 13,9 4 2 19 10 NNW 0,0
15.06.2018 21:00:00 15,8 13,7 9 5 24 13 N 0,0
15.06.2018 20:00:00 16,2 13,2 9 5 20 11 N -
15.06.2018 19:00:00 17,6 13,8 9 5 24 13 N 0,0
15.06.2018 18:00:00 16,9 13,7 5 3 23 12 N 0,0
15.06.2018 17:00:00 17,9 13,4 11 6 30 16 N 0,0
15.06.2018 16:00:00 19,1 13,5 16 9 34 18 NNW 0,0
15.06.2018 15:00:00 20,6 14,5 8 5 27 15 N 0,0
15.06.2018 14:00:00 18,6 12,5 16 9 26 14 NW -
15.06.2018 13:00:00 16,9 11,3 9 5 26 14 N 0,0
15.06.2018 12:00:00 16,1 12,2 13 7 25 14 NNW 0,0
15.06.2018 11:00:00 14,2 12,2 13 7 21 12 NW 0,0
15.06.2018 10:00:00 13,7 12,2 10 5 23 12 NW 0,0
15.06.2018 09:00:00 12,3 12,1 11 6 19 10 NW 0,0
15.06.2018 08:00:00 9,9 9,8 0 0 5 3 SSE -
15.06.2018 07:00:00 8,5 8,4 0 0 7 4 SSW 0,0
15.06.2018 06:00:00 8,1 8,0 2 1 6 4 SSE 0,0
15.06.2018 05:00:00 8,5 8,4 1 1 8 4 SSE 0,0
15.06.2018 04:00:00 9,2 9,0 3 1 6 4 E 0,0
15.06.2018 03:00:00 9,7 9,6 1 1 8 4 S 0,0
15.06.2018 02:00:00 10,1 9,9 1 1 9 5 S -
15.06.2018 01:00:00 10,8 10,6 1 1 7 4 WSW 0,0
15.06.2018 00:00:00 11,5 10,8 4 2 9 5 WNW 0,0
14.06.2018 23:00:00 13,1 11,1 5 3 18 10 NW 0,0
14.06.2018 22:00:00 14,2 11,0 3 2 26 14 N 0,0
14.06.2018 21:00:00 15,2 11,3 9 5 29 16 NNE 0,0
14.06.2018 20:00:00 15,3 11,1 8 4 25 13 N -
14.06.2018 19:00:00 16,1 11,4 9 5 29 15 N 0,0
14.06.2018 18:00:00 17,1 12,2 11 6 25 14 NNE 0,0
14.06.2018 17:00:00 15,9 11,4 11 6 25 14 NNE 0,0
14.06.2018 16:00:00 15,9 11,9 8 5 24 13 N 0,0
14.06.2018 15:00:00 15,3 11,7 7 4 23 13 NNE 0,0
14.06.2018 14:00:00 14,7 11,9 7 4 17 9 N -
14.06.2018 13:00:00 14,3 12,0 11 6 20 11 NNW 0,0
14.06.2018 12:00:00 13,6 11,7 11 6 22 12 NNW 0,0
14.06.2018 11:00:00 12,9 11,4 12 7 21 11 NNW 0,0
14.06.2018 10:00:00 12,2 11,0 9 5 16 9 NNW 0,0
14.06.2018 09:00:00 11,9 10,6 7 4 16 8 N 0,0
14.06.2018 08:00:00 11,7 10,4 9 5 20 11 N -
14.06.2018 07:00:00 11,7 10,4 9 5 19 11 N 0,0

tt = Température de l'air
td = dewpoint
ff = Vitesse du vent
fx = gusts
dd = Direction du vent
rr = Quantités de précipitations

stations d'obs. à proximité